createdAt,value
2022-11-25T00:01:26.386Z,98344.22
2022-11-25T00:03:56.521Z,98344.03
2022-11-25T00:06:25.933Z,98349.25
2022-11-25T00:08:56.465Z,98346.00
2022-11-25T00:11:24.610Z,98340.44
2022-11-25T00:13:52.989Z,98350.53
2022-11-25T00:16:21.883Z,98343.41
2022-11-25T00:18:50.792Z,98345.31
2022-11-25T00:21:20.897Z,98347.88
2022-11-25T00:23:51.650Z,98346.50
2022-11-25T00:26:20.097Z,98339.69
2022-11-25T00:28:48.796Z,98338.97
2022-11-25T00:31:17.909Z,98338.75
2022-11-25T00:33:46.713Z,98341.19
2022-11-25T00:36:16.486Z,98329.25
2022-11-25T00:38:46.314Z,98331.63
2022-11-25T00:41:32.525Z,98331.53
2022-11-25T00:44:18.198Z,98330.97
2022-11-25T00:46:46.198Z,98332.78
2022-11-25T00:49:14.319Z,98341.72
2022-11-25T00:51:44.975Z,98343.72
2022-11-25T00:54:14.980Z,98341.38
2022-11-25T00:56:45.611Z,98330.69
2022-11-25T00:59:14.175Z,98340.78
2022-11-25T01:01:42.616Z,98347.44
2022-11-25T01:04:11.327Z,98350.22
2022-11-25T01:06:42.029Z,98360.31
2022-11-25T01:09:12.614Z,98353.56
2022-11-25T01:11:44.818Z,98347.38
2022-11-25T01:14:13.182Z,98344.06
2022-11-25T01:16:41.742Z,98338.91
2022-11-25T01:19:11.522Z,98347.72
2022-11-25T01:21:41.141Z,98347.66
2022-11-25T01:24:14.301Z,98358.88
2022-11-25T01:26:45.027Z,98350.78
2022-11-25T01:29:16.036Z,98349.59
2022-11-25T01:31:45.615Z,98341.09
2022-11-25T01:34:16.601Z,98361.84
2022-11-25T01:36:45.277Z,98360.06
2022-11-25T01:39:18.243Z,98358.59
2022-11-25T01:41:48.926Z,98358.72
2022-11-25T01:44:20.016Z,98361.00
2022-11-25T01:46:54.122Z,98379.88
2022-11-25T01:49:30.062Z,98372.88
2022-11-25T01:52:03.879Z,98379.25
2022-11-25T01:54:36.757Z,98371.31
2022-11-25T01:57:10.659Z,98379.97
2022-11-25T01:59:44.721Z,98358.88
2022-11-25T02:02:13.583Z,98366.81
2022-11-25T02:04:44.562Z,98367.09
2022-11-25T02:07:17.143Z,98351.75
2022-11-25T02:09:46.945Z,98367.13
2022-11-25T02:12:21.620Z,98370.75
2022-11-25T02:14:51.839Z,98366.75
2022-11-25T02:17:21.482Z,98350.66
2022-11-25T02:20:00.423Z,98360.09
2022-11-25T02:22:40.879Z,98362.25
2022-11-25T02:25:18.869Z,98363.16
2022-11-25T02:27:51.794Z,98358.97
2022-11-25T02:30:20.431Z,98359.34
2022-11-25T02:32:50.255Z,98364.84
2022-11-25T02:35:28.261Z,98373.41
2022-11-25T02:38:00.910Z,98372.63
2022-11-25T02:40:31.592Z,98372.75
2022-11-25T02:43:01.717Z,98367.47
2022-11-25T02:45:40.594Z,98353.78
2022-11-25T02:48:08.967Z,98361.28
2022-11-25T02:50:37.389Z,98353.56
2022-11-25T02:53:05.840Z,98352.19
2022-11-25T02:55:35.665Z,98343.81
2022-11-25T02:58:04.194Z,98357.53
2022-11-25T03:00:32.426Z,98360.06
2022-11-25T03:03:00.414Z,98354.38
2022-11-25T03:05:28.504Z,98353.28
2022-11-25T03:07:56.529Z,98302.72
2022-11-25T03:10:26.276Z,98343.47
2022-11-25T03:12:56.119Z,98346.56
2022-11-25T03:15:24.836Z,98348.44
2022-11-25T03:17:53.011Z,98343.63
2022-11-25T03:20:21.136Z,98341.03
2022-11-25T03:22:49.452Z,98341.19
2022-11-25T03:25:18.271Z,98336.31
2022-11-25T03:27:46.447Z,98328.75
2022-11-25T03:30:20.250Z,98316.13
2022-11-25T03:32:51.190Z,98323.78
2022-11-25T03:35:19.407Z,98314.56
2022-11-25T03:37:47.667Z,98312.47
2022-11-25T03:40:16.722Z,98310.81
2022-11-25T03:42:45.922Z,98312.09
2022-11-25T03:45:15.296Z,98307.72
2022-11-25T03:47:46.629Z,98308.88
2022-11-25T03:50:16.244Z,98317.88
2022-11-25T03:52:46.122Z,98315.28
2022-11-25T03:55:14.780Z,98336.72
2022-11-25T03:57:46.051Z,98324.69
2022-11-25T04:00:14.765Z,98332.00
2022-11-25T04:02:50.051Z,98324.53
2022-11-25T04:05:21.606Z,98328.03
2022-11-25T04:07:54.904Z,98326.19
2022-11-25T04:10:28.322Z,98333.53
2022-11-25T04:12:55.443Z,98332.53
2022-11-25T04:15:29.703Z,98325.91
2022-11-25T04:18:00.982Z,98326.06
2022-11-25T04:20:29.112Z,98320.72
2022-11-25T04:23:03.406Z,98323.53
2022-11-25T04:25:32.776Z,98324.03
2022-11-25T04:28:01.650Z,98321.91
2022-11-25T04:30:33.969Z,98321.81
2022-11-25T04:33:04.146Z,98317.94
2022-11-25T04:35:32.420Z,98310.03
2022-11-25T04:38:00.553Z,98313.91
2022-11-25T04:40:30.047Z,98314.84
2022-11-25T04:43:13.829Z,98313.72
2022-11-25T04:46:13.080Z,98312.81
2022-11-25T04:48:39.004Z,98313.09
2022-11-25T04:51:07.545Z,98306.97
2022-11-25T04:53:35.610Z,98305.63
2022-11-25T04:56:03.639Z,98312.31
2022-11-25T04:58:54.611Z,98316.09
2022-11-25T05:01:22.930Z,98321.88
2022-11-25T05:03:57.776Z,98322.53
2022-11-25T05:06:27.729Z,98324.19
2022-11-25T05:08:56.039Z,98316.72
2022-11-25T05:11:26.391Z,98323.63
2022-11-25T05:13:54.591Z,98322.03
2022-11-25T05:16:22.655Z,98320.84
2022-11-25T05:18:50.878Z,98327.34
2022-11-25T05:21:23.824Z,98327.66
2022-11-25T05:23:55.782Z,98332.44
2022-11-25T05:26:25.025Z,98339.22
2022-11-25T05:28:55.370Z,98343.63
2022-11-25T05:31:23.616Z,98352.06
2022-11-25T05:33:51.966Z,98347.78
2022-11-25T05:36:20.336Z,98348.44
2022-11-25T05:38:50.535Z,98347.72
2022-11-25T05:41:27.577Z,98347.44
2022-11-25T05:43:55.697Z,98355.88
2022-11-25T05:46:24.176Z,98359.91
2022-11-25T05:48:56.028Z,98363.78
2022-11-25T05:51:28.204Z,98375.06
2022-11-25T05:53:58.677Z,98377.72
2022-11-25T05:56:30.515Z,98375.41
2022-11-25T05:59:21.749Z,98368.78
2022-11-25T06:02:08.399Z,98373.34
2022-11-25T06:04:36.722Z,98370.78
2022-11-25T06:07:06.044Z,98374.22
2022-11-25T06:09:36.144Z,98368.41
2022-11-25T06:12:04.386Z,98371.16
2022-11-25T06:14:35.917Z,98374.63
2022-11-25T06:17:04.436Z,98382.75
2022-11-25T06:19:40.738Z,98372.09
2022-11-25T06:22:09.086Z,98381.16
2022-11-25T06:24:38.889Z,98367.81
2022-11-25T06:27:09.187Z,98373.22
2022-11-25T06:29:38.371Z,98383.06
2022-11-25T06:32:06.799Z,98381.63
2022-11-25T06:34:42.903Z,98388.63
2022-11-25T06:37:32.998Z,98383.53
2022-11-25T06:40:02.963Z,98398.00
2022-11-25T06:42:32.030Z,98395.38
2022-11-25T06:45:00.458Z,98413.38
2022-11-25T06:47:28.808Z,98403.06
2022-11-25T06:49:57.189Z,98407.72
2022-11-25T06:52:25.648Z,98410.53
2022-11-25T06:54:54.021Z,98406.06
2022-11-25T06:57:23.644Z,98418.47
2022-11-25T06:59:54.131Z,98406.88
2022-11-25T07:02:22.785Z,98409.19
2022-11-25T07:04:51.088Z,98407.81
2022-11-25T07:07:19.452Z,98407.56
2022-11-25T07:09:48.452Z,98410.72
2022-11-25T07:12:16.839Z,98408.91
2022-11-25T07:14:46.577Z,98403.53
2022-11-25T07:17:14.671Z,98403.88
2022-11-25T07:19:42.796Z,98408.56
2022-11-25T07:22:10.851Z,98420.53
2022-11-25T07:24:39.032Z,98417.53
2022-11-25T07:27:08.171Z,98429.97
2022-11-25T07:29:57.860Z,98420.72
2022-11-25T07:32:26.154Z,98430.06
2022-11-25T07:34:54.166Z,98434.34
2022-11-25T07:37:22.395Z,98434.91
2022-11-25T07:39:50.734Z,98436.25
2022-11-25T07:42:18.903Z,98433.00
2022-11-25T07:44:47.043Z,98447.66
2022-11-25T07:47:36.105Z,98445.53
2022-11-25T07:50:04.176Z,98463.41
2022-11-25T07:52:32.187Z,98482.06
2022-11-25T07:55:00.217Z,98467.69
2022-11-25T07:57:28.377Z,98476.31
2022-11-25T07:59:56.402Z,98475.25
2022-11-25T08:02:24.475Z,98467.13
2022-11-25T08:04:53.942Z,98469.81
2022-11-25T08:07:22.054Z,98466.13
2022-11-25T08:09:51.396Z,98452.00
2022-11-25T08:12:19.498Z,98441.22
2022-11-25T08:14:47.609Z,98440.72
2022-11-25T08:17:17.986Z,98440.97
2022-11-25T08:19:46.269Z,98436.78
2022-11-25T08:22:15.796Z,98445.16
2022-11-25T08:24:46.164Z,98450.34
2022-11-25T08:27:14.264Z,98449.03
2022-11-25T08:29:42.365Z,98439.25
2022-11-25T08:32:12.075Z,98446.31
2022-11-25T08:34:40.336Z,98449.44
2022-11-25T08:37:10.992Z,98459.97
2022-11-25T08:39:56.236Z,98454.75
2022-11-25T08:42:24.616Z,98457.28
2022-11-25T08:44:53.764Z,98449.53
2022-11-25T08:47:21.968Z,98454.16
2022-11-25T08:49:52.937Z,98462.28
2022-11-25T08:52:20.990Z,98454.28
2022-11-25T08:54:50.513Z,98449.84
2022-11-25T08:57:18.636Z,98456.47
2022-11-25T08:59:46.761Z,98454.22
2022-11-25T09:02:17.077Z,98459.97
2022-11-25T09:04:45.244Z,98467.78
2022-11-25T09:07:13.427Z,98472.28
2022-11-25T09:09:41.594Z,98469.81
2022-11-25T09:12:11.143Z,98472.56
2022-11-25T09:14:40.413Z,98476.53
2022-11-25T09:17:09.879Z,98477.81
2022-11-25T09:19:38.458Z,98483.28
2022-11-25T09:22:06.768Z,98490.19
2022-11-25T09:24:35.403Z,98483.28
2022-11-25T09:27:03.510Z,98489.28
2022-11-25T09:29:33.191Z,98498.69
2022-11-25T09:32:01.499Z,98488.72
2022-11-25T09:34:29.799Z,98488.13
2022-11-25T09:37:00.176Z,98496.69
2022-11-25T09:39:29.813Z,98494.16
2022-11-25T09:42:28.031Z,98493.09
2022-11-25T09:45:21.723Z,98491.31
2022-11-25T09:47:57.775Z,98500.38
2022-11-25T09:50:31.843Z,98493.75
2022-11-25T09:53:05.746Z,98501.78
2022-11-25T09:55:36.204Z,98504.69
2022-11-25T09:58:14.377Z,98506.22
2022-11-25T10:00:45.742Z,98499.28
2022-11-25T10:03:21.362Z,98503.81
2022-11-25T10:05:53.978Z,98493.84
2022-11-25T10:08:23.829Z,98501.38
2022-11-25T10:10:57.750Z,98501.81
2022-11-25T10:13:29.982Z,98509.75
2022-11-25T10:16:02.821Z,98504.63
2022-11-25T10:18:32.951Z,98505.66
2022-11-25T10:21:01.238Z,98508.25
2022-11-25T10:23:32.849Z,98507.81
2022-11-25T10:26:02.896Z,98505.72
2022-11-25T10:28:31.982Z,98498.22
2022-11-25T10:31:04.543Z,98503.31
2022-11-25T10:33:33.495Z,98516.88
2022-11-25T10:36:06.992Z,98516.47
2022-11-25T10:38:40.015Z,98472.22
2022-11-25T10:41:08.722Z,98507.56
2022-11-25T10:43:40.885Z,98515.88
2022-11-25T10:46:15.817Z,98517.94
2022-11-25T10:48:47.629Z,98518.63
2022-11-25T10:51:22.389Z,98529.47
2022-11-25T10:54:05.634Z,98522.88
2022-11-25T10:56:43.016Z,98532.00
2022-11-25T10:59:14.335Z,98524.13
2022-11-25T11:01:43.921Z,98538.13
2022-11-25T11:04:14.985Z,98544.97
2022-11-25T11:06:44.111Z,98548.91
2022-11-25T11:09:27.057Z,98548.66
2022-11-25T11:11:55.102Z,98561.13
2022-11-25T11:14:23.222Z,98562.78
2022-11-25T11:16:55.076Z,98558.41
2022-11-25T11:19:24.587Z,98560.19
2022-11-25T11:21:52.697Z,98560.03
2022-11-25T11:24:29.092Z,98557.97
2022-11-25T11:27:05.230Z,98566.19
2022-11-25T11:29:33.372Z,98569.19
2022-11-25T11:32:03.879Z,98577.84
2022-11-25T11:34:41.715Z,98576.19
2022-11-25T11:37:18.024Z,98574.34
2022-11-25T11:39:59.873Z,98569.38
2022-11-25T11:42:33.774Z,98566.34
2022-11-25T11:45:06.976Z,98563.22
2022-11-25T11:47:41.910Z,98566.53
2022-11-25T11:50:23.253Z,98565.50
2022-11-25T11:52:56.129Z,98567.97
2022-11-25T11:55:37.565Z,98573.75
2022-11-25T11:58:10.595Z,98577.44
2022-11-25T12:00:44.999Z,98572.75
2022-11-25T12:03:17.893Z,98582.69
2022-11-25T12:05:46.146Z,98585.31
2022-11-25T12:08:15.697Z,98585.97
2022-11-25T12:10:45.734Z,98593.91
2022-11-25T12:13:18.391Z,98590.25
2022-11-25T12:15:49.938Z,98603.41
2022-11-25T12:18:24.360Z,98605.47
2022-11-25T12:20:55.422Z,98605.97
2022-11-25T12:23:27.890Z,98605.44
2022-11-25T12:25:59.766Z,98610.75
2022-11-25T12:28:31.437Z,98609.09
2022-11-25T12:31:05.445Z,98614.28
2022-11-25T12:33:42.574Z,98610.41
2022-11-25T12:36:13.283Z,98612.28
2022-11-25T12:38:44.278Z,98616.81
2022-11-25T12:41:18.489Z,98620.56
2022-11-25T12:43:49.936Z,98617.44
2022-11-25T12:46:23.522Z,98619.50
2022-11-25T12:48:54.349Z,98618.47
2022-11-25T12:51:29.582Z,98628.00
2022-11-25T12:54:04.771Z,98625.09
2022-11-25T12:56:38.692Z,98621.38
2022-11-25T12:59:18.572Z,98636.69
2022-11-25T13:01:59.321Z,98646.78
2022-11-25T13:04:47.187Z,98648.03
2022-11-25T13:07:25.631Z,98660.69
2022-11-25T13:10:07.261Z,98659.44
2022-11-25T13:12:42.092Z,98664.38
2022-11-25T13:15:27.458Z,98667.31
2022-11-25T13:17:58.149Z,98669.38
2022-11-25T13:20:40.251Z,98673.72
2022-11-25T13:23:10.383Z,98667.06
2022-11-25T13:25:39.611Z,98660.22
2022-11-25T13:28:27.739Z,98662.50
2022-11-25T13:30:56.049Z,98663.19
2022-11-25T13:33:42.553Z,98662.13
2022-11-25T13:36:18.215Z,98662.75
2022-11-25T13:39:00.092Z,98661.56
2022-11-25T13:41:38.318Z,98664.22
2022-11-25T13:44:11.003Z,98670.44
2022-11-25T13:46:41.078Z,98678.94
2022-11-25T13:49:22.639Z,98673.91
2022-11-25T13:51:56.326Z,98683.47
2022-11-25T13:54:26.681Z,98670.88
2022-11-25T13:57:15.656Z,98692.38
2022-11-25T13:59:50.796Z,98691.94
2022-11-25T14:02:42.024Z,98702.53
2022-11-25T14:05:22.747Z,98710.03
2022-11-25T14:07:57.774Z,98708.34
2022-11-25T14:10:44.933Z,98704.41
2022-11-25T14:13:29.132Z,98704.41
2022-11-25T14:16:13.530Z,98716.63
2022-11-25T14:21:51.507Z,98719.09
2022-11-25T14:24:34.408Z,98721.00
2022-11-25T14:27:05.222Z,98723.28
2022-11-25T14:29:38.012Z,98726.09
2022-11-25T14:32:09.666Z,98727.78
2022-11-25T14:34:39.671Z,98725.06
2022-11-25T14:37:11.235Z,98718.91
2022-11-25T14:39:42.968Z,98722.31
2022-11-25T14:42:16.713Z,98719.25
2022-11-25T14:44:48.431Z,98726.94
2022-11-25T14:47:16.781Z,98729.63
2022-11-25T14:49:55.327Z,98723.06
2022-11-25T14:52:35.786Z,98728.47
2022-11-25T14:55:05.403Z,98733.00
2022-11-25T14:57:36.388Z,98734.34
2022-11-25T15:00:07.129Z,98749.53
2022-11-25T15:02:37.347Z,98745.16
2022-11-25T15:05:17.469Z,98743.38
2022-11-25T15:07:54.304Z,98745.72
2022-11-25T15:10:40.315Z,98760.94
2022-11-25T15:13:13.821Z,98762.59
2022-11-25T15:15:45.183Z,98770.47
2022-11-25T15:18:18.247Z,98766.56
2022-11-25T15:20:47.500Z,98760.47
2022-11-25T15:23:18.023Z,98766.16
2022-11-25T15:25:52.757Z,98764.28
2022-11-25T15:28:22.268Z,98769.03
2022-11-25T15:30:57.887Z,98771.28
2022-11-25T15:33:26.864Z,98772.19
2022-11-25T15:35:54.946Z,98772.34
2022-11-25T15:38:36.232Z,98774.59
2022-11-25T15:41:04.703Z,98773.81
2022-11-25T15:43:35.537Z,98778.38
2022-11-25T15:46:05.715Z,98780.25
2022-11-25T15:48:36.170Z,98789.97
2022-11-25T15:51:21.563Z,98794.94
2022-11-25T15:53:53.346Z,98804.88
2022-11-25T15:56:23.981Z,98797.75
2022-11-25T15:58:57.381Z,98805.00
2022-11-25T16:01:30.321Z,98807.38
2022-11-25T16:04:10.546Z,98808.22
2022-11-25T16:06:38.634Z,98805.31
2022-11-25T16:09:20.527Z,98810.72
2022-11-25T16:11:48.527Z,98815.25
2022-11-25T16:14:26.454Z,98809.44
2022-11-25T16:16:56.413Z,98812.78
2022-11-25T16:19:27.622Z,98826.00
2022-11-25T16:21:57.844Z,98825.31
2022-11-25T16:24:40.699Z,98824.28
2022-11-25T16:27:17.110Z,98823.88
2022-11-25T16:29:54.342Z,98824.47
2022-11-25T16:32:23.214Z,98832.28
2022-11-25T16:34:51.369Z,98841.59
2022-11-25T16:37:19.396Z,98837.91
2022-11-25T16:39:47.476Z,98846.13
2022-11-25T16:42:18.521Z,98851.94
2022-11-25T16:44:48.016Z,98856.88
2022-11-25T16:47:17.976Z,98868.53
2022-11-25T16:49:46.506Z,98866.44
2022-11-25T16:52:16.898Z,98872.84
2022-11-25T16:54:44.986Z,98883.03
2022-11-25T16:57:17.208Z,98881.19
2022-11-25T16:59:46.377Z,98887.44
2022-11-25T17:02:16.709Z,98884.59
2022-11-25T17:04:46.384Z,98892.34
2022-11-25T17:10:03.417Z,98901.13
2022-11-25T17:12:33.023Z,98905.38
2022-11-25T17:15:02.102Z,98903.31
2022-11-25T17:17:30.428Z,98895.41
2022-11-25T17:19:59.899Z,98907.38
2022-11-25T17:22:32.190Z,98916.28
2022-11-25T17:25:02.765Z,98920.41
2022-11-25T17:27:32.984Z,98922.31
2022-11-25T17:30:03.599Z,98918.25
2022-11-25T17:32:34.443Z,98919.13
2022-11-25T17:35:03.893Z,98923.63
2022-11-25T17:37:32.983Z,98925.00
2022-11-25T17:40:03.803Z,98933.47
2022-11-25T17:42:32.900Z,98931.28
2022-11-25T17:45:01.380Z,98936.78
2022-11-25T17:47:29.456Z,98937.44
2022-11-25T17:49:58.444Z,98930.75
2022-11-25T17:52:27.845Z,98928.16
2022-11-25T17:54:55.869Z,98946.72
2022-11-25T17:57:29.123Z,98945.50
2022-11-25T17:59:57.501Z,98953.03
2022-11-25T18:02:25.723Z,98956.53
2022-11-25T18:04:55.149Z,98964.00
2022-11-25T18:07:23.434Z,98966.72
2022-11-25T18:09:52.984Z,98969.28
2022-11-25T18:12:26.275Z,98980.72
2022-11-25T18:14:54.600Z,98971.47
2022-11-25T18:17:22.684Z,98979.78
2022-11-25T18:19:54.943Z,98976.66
2022-11-25T18:22:24.696Z,98982.75
2022-11-25T18:24:54.459Z,98988.84
2022-11-25T18:27:23.948Z,98995.47
2022-11-25T18:29:52.839Z,98998.00
2022-11-25T18:32:22.680Z,99005.00
2022-11-25T18:34:51.511Z,99006.91
2022-11-25T18:37:19.577Z,99016.88
2022-11-25T18:39:47.723Z,99010.78
2022-11-25T18:42:23.539Z,99020.47
2022-11-25T18:44:51.697Z,99019.53
2022-11-25T18:47:19.773Z,99021.94
2022-11-25T18:49:51.115Z,99026.00
2022-11-25T18:52:23.779Z,99028.00
2022-11-25T18:55:03.007Z,99029.22
2022-11-25T18:57:36.219Z,99040.09
2022-11-25T19:00:30.880Z,99041.41
2022-11-25T19:02:57.191Z,99045.00
2022-11-25T19:05:26.419Z,99040.75
2022-11-25T19:07:55.967Z,99037.59
2022-11-25T19:10:25.803Z,99041.59
2022-11-25T19:12:58.842Z,99045.28
2022-11-25T19:15:27.736Z,99050.22
2022-11-25T19:17:59.712Z,99040.28
2022-11-25T19:20:30.309Z,99059.34
2022-11-25T19:23:01.185Z,99065.00
2022-11-25T19:25:33.934Z,99069.22
2022-11-25T19:28:03.480Z,99082.69
2022-11-25T19:30:32.815Z,99075.19
2022-11-25T19:33:04.111Z,99079.66
2022-11-25T19:35:34.206Z,99078.88
2022-11-25T19:38:04.656Z,99078.66
2022-11-25T19:40:39.108Z,99090.16
2022-11-25T19:43:11.224Z,99104.44
2022-11-25T19:45:39.397Z,99098.59
2022-11-25T19:48:17.820Z,99113.19
2022-11-25T19:50:52.342Z,99117.81
2022-11-25T19:53:22.850Z,99121.13
2022-11-25T19:55:53.757Z,99123.09
2022-11-25T19:58:24.241Z,99131.03
2022-11-25T20:00:54.744Z,99140.19
2022-11-25T20:03:27.825Z,99135.72
2022-11-25T20:05:56.060Z,99140.16
2022-11-25T20:08:25.956Z,99143.16
2022-11-25T20:10:59.499Z,99149.44
2022-11-25T20:13:29.258Z,99162.72
2022-11-25T20:15:59.066Z,99162.19
2022-11-25T20:18:27.794Z,99167.19
2022-11-25T20:20:59.927Z,99175.28
2022-11-25T20:23:32.068Z,99183.47
2022-11-25T20:26:02.578Z,99186.72
2022-11-25T20:28:32.585Z,99191.28
2022-11-25T20:31:00.717Z,99194.06
2022-11-25T20:33:28.985Z,99170.47
2022-11-25T20:36:02.488Z,99195.44
2022-11-25T20:38:34.036Z,99202.97
2022-11-25T20:41:02.402Z,99207.88
2022-11-25T20:43:36.958Z,99209.38
2022-11-25T20:46:06.954Z,99214.31
2022-11-25T20:48:38.010Z,99215.41
2022-11-25T20:51:07.745Z,99221.66
2022-11-25T20:53:36.234Z,99220.69
2022-11-25T20:56:04.773Z,99200.19
2022-11-25T20:58:38.425Z,99218.66
2022-11-25T21:01:07.507Z,99225.25
2022-11-25T21:03:36.070Z,99222.91
2022-11-25T21:06:09.409Z,99228.69
2022-11-25T21:08:47.280Z,99220.84
2022-11-25T21:11:16.365Z,99234.53
2022-11-25T21:13:46.089Z,99227.56
2022-11-25T21:16:14.386Z,99229.69
2022-11-25T21:18:43.200Z,99240.63
2022-11-25T21:21:14.798Z,99246.31
2022-11-25T21:23:43.803Z,99247.78
2022-11-25T21:26:14.618Z,99252.53
2022-11-25T21:28:43.916Z,99252.84
2022-11-25T21:31:17.723Z,99250.72
2022-11-25T21:33:46.699Z,99256.41
2022-11-25T21:36:17.770Z,99254.75
2022-11-25T21:38:49.339Z,99259.38
2022-11-25T21:41:18.598Z,99256.75
2022-11-25T21:43:49.568Z,99261.91
2022-11-25T21:46:20.520Z,99258.09
2022-11-25T21:48:52.396Z,99261.44
2022-11-25T21:51:24.642Z,99261.88
2022-11-25T21:53:53.076Z,99272.06
2022-11-25T21:56:26.249Z,99267.03
2022-11-25T21:58:54.624Z,99278.94
2022-11-25T22:02:37.531Z,99279.56
2022-11-25T22:05:14.381Z,99285.53
2022-11-25T22:07:45.154Z,99284.66
2022-11-25T22:10:13.892Z,99282.03
2022-11-25T22:12:43.609Z,99289.38
2022-11-25T22:15:16.862Z,99295.00
2022-11-25T22:17:46.886Z,99298.28
2022-11-25T22:20:21.407Z,99291.00
2022-11-25T22:22:49.653Z,99300.22
2022-11-25T22:25:17.764Z,99296.91
2022-11-25T22:27:46.142Z,99298.94
2022-11-25T22:30:16.682Z,99302.28
2022-11-25T22:32:50.522Z,99298.00
2022-11-25T22:35:20.123Z,99306.88
2022-11-25T22:37:54.748Z,99316.53
2022-11-25T22:40:24.323Z,99317.16
2022-11-25T22:42:53.002Z,99314.84
2022-11-25T22:45:25.013Z,99325.88
2022-11-25T22:47:54.603Z,99321.91
2022-11-25T22:50:23.713Z,99322.66
2022-11-25T22:52:52.298Z,99318.44
2022-11-25T22:55:21.848Z,99319.53
2022-11-25T22:57:50.393Z,99318.28
2022-11-25T23:00:19.634Z,99329.59
2022-11-25T23:02:50.501Z,99333.31
2022-11-25T23:05:30.722Z,99335.81
2022-11-25T23:08:00.873Z,99335.97
2022-11-25T23:10:30.083Z,99329.47
2022-11-25T23:12:58.221Z,99339.84
2022-11-25T23:15:26.713Z,99340.50
2022-11-25T23:17:55.874Z,99352.00
2022-11-25T23:20:27.115Z,99353.53
2022-11-25T23:22:55.275Z,99341.94
2022-11-25T23:25:23.970Z,99352.56
2022-11-25T23:27:54.186Z,99364.59
2022-11-25T23:30:23.290Z,99358.66
2022-11-25T23:32:52.638Z,99360.06
2022-11-25T23:35:22.226Z,99364.66
2022-11-25T23:37:54.468Z,99368.94
2022-11-25T23:40:23.359Z,99368.88
2022-11-25T23:42:52.139Z,99364.69
2022-11-25T23:45:22.180Z,99370.78
2022-11-25T23:47:51.482Z,99373.47
2022-11-25T23:50:25.740Z,99371.06
2022-11-25T23:52:59.032Z,99377.59
2022-11-25T23:55:28.425Z,99376.28
2022-11-25T23:57:56.585Z,99369.16
